Time;durP1;ratioP1;P1;durP2;ratioP2;P2;SDS_P1;SDS_P2;PMS_P1;PMS_P2;Temp;Humidity;BMP_temperature;BMP_pressure;BME280_temperature;BME280_humidity;BME280_pressure;Samples;Min_cycle;Max_cycle;Signal;HPM_P1;HPM_P2
2023/09/22 00:00:55;;;;;;;;;;;17.50;62.60;;;13.39;100.00;94425.75;5024306;28;20340;-50
2023/09/22 00:03:22;;;;;;;;;;;17.50;62.60;;;13.29;100.00;94415.34;5016840;28;19968;-48
2023/09/22 00:05:47;;;;;;;;;;;17.50;62.60;;;13.31;100.00;94405.09;5023349;28;19908;-51
2023/09/22 00:08:13;;;;;;;;;;;17.50;62.70;;;13.33;100.00;94404.81;5029371;28;19915;-46
2023/09/22 00:10:39;;;;;;;;;;;17.50;62.70;;;13.36;100.00;94401.50;5024389;28;19915;-51
2023/09/22 00:13:05;;;;;;;;;;;17.50;62.80;;;13.33;100.00;94410.16;5033259;28;19909;-50
2023/09/22 00:15:34;;;;;;;;;;;17.50;62.80;;;13.33;100.00;94405.59;5033648;28;19920;-48
2023/09/22 00:18:00;;;;;;;;;;;17.40;62.80;;;13.30;100.00;94398.19;5030357;28;19962;-51
2023/09/22 00:20:26;;;;;;;;;;;17.50;62.90;;;13.25;100.00;94400.97;5030952;28;19952;-53
2023/09/22 00:22:52;;;;;;;;;;;17.40;63.00;;;13.19;100.00;94403.00;5033483;28;19948;-50
2023/09/22 00:25:18;;;;;;;;;;;17.40;63.10;;;13.17;100.00;94410.53;5032302;28;20376;-52
2023/09/22 00:27:44;;;;;;;;;;;17.30;63.10;;;13.18;100.00;94405.97;5032838;28;19944;-48
2023/09/22 00:30:10;;;;;;;;;;;17.30;63.20;;;13.17;100.00;94410.53;5032232;28;19912;-49
2023/09/22 00:32:38;;;;;;;;;;;17.30;63.30;;;13.17;100.00;94413.22;5033215;28;19916;-51
2023/09/22 00:35:06;;;;;;;;;;;17.30;63.50;;;13.19;100.00;94413.69;5033465;28;19919;-51
2023/09/22 00:37:33;;;;;;;;;;;17.20;63.60;;;13.20;100.00;94412.59;5032008;28;20287;-48
2023/09/22 00:39:59;;;;;;;;;;;17.20;63.80;;;13.24;100.00;94414.66;5032353;28;20003;-50
2023/09/22 00:42:26;;;;;;;;;;;17.20;63.80;;;13.22;100.00;94422.97;5031945;28;19915;-54
2023/09/22 00:44:51;;;;;;;;;;;17.20;63.80;;;13.20;100.00;94428.63;5033266;28;20370;-49
2023/09/22 00:47:17;;;;;;;;;;;17.20;63.90;;;13.23;100.00;94437.16;5032868;28;20007;-48
2023/09/22 00:49:47;;;;;;;;;;;17.20;63.90;;;13.24;100.00;94426.13;5031997;28;20008;-48
2023/09/22 00:52:14;;;;;;;;;;;17.20;64.00;;;13.22;100.00;94428.31;5032346;28;20007;-46
2023/09/22 00:54:41;;;;;;;;;;;17.20;64.00;;;13.20;100.00;94430.53;5032047;28;19912;-49
2023/09/22 00:57:07;;;;;;;;;;;17.20;64.10;;;13.19;100.00;94432.41;5021308;28;19916;-48
2023/09/22 00:59:34;;;;;;;;;;;17.20;64.10;;;13.18;100.00;94440.72;5032955;28;19908;-53
2023/09/22 01:02:01;;;;;;;;;;;17.20;64.10;;;13.18;100.00;94428.16;5029325;28;19908;-47
2023/09/22 01:04:28;;;;;;;;;;;17.20;64.10;;;13.19;100.00;94421.72;5032894;28;20007;-48
2023/09/22 01:06:56;;;;;;;;;;;17.20;64.00;;;13.17;100.00;94423.91;5031586;28;19955;-48
2023/09/22 01:09:22;;;;;;;;;;;17.20;64.00;;;13.14;100.00;94403.13;5032894;28;20369;-47
2023/09/22 01:11:48;;;;;;;;;;;17.20;64.10;;;13.13;100.00;94409.59;5032501;28;19909;-49
2023/09/22 01:14:14;;;;;;;;;;;17.20;64.00;;;13.11;100.00;94406.41;5032085;28;19923;-48
2023/09/22 01:16:41;;;;;;;;;;;17.20;64.00;;;13.09;100.00;94405.94;5032006;28;19916;-48
2023/09/22 01:19:15;;;;;;;;;;;17.20;64.00;;;13.08;100.00;94409.72;5031353;28;20308;-50
2023/09/22 01:21:46;;;;;;;;;;;17.10;64.00;;;13.06;100.00;94414.56;5032333;28;20334;-50
2023/09/22 01:24:13;;;;;;;;;;;17.20;64.00;;;13.05;100.00;94415.66;5031329;28;20346;-47
2023/09/22 01:26:39;;;;;;;;;;;17.20;64.10;;;13.01;100.00;94412.03;5031773;28;19995;-54
2023/09/22 01:29:07;;;;;;;;;;;17.20;64.10;;;12.99;100.00;94402.75;5032592;28;19915;-49
2023/09/22 01:31:33;;;;;;;;;;;17.10;64.00;;;12.99;100.00;94394.72;5031153;28;19916;-47
2023/09/22 01:34:03;;;;;;;;;;;17.10;64.00;;;12.97;100.00;94395.03;5030491;28;19955;-45
2023/09/22 01:36:29;;;;;;;;;;;17.10;64.00;;;13.00;100.00;94402.44;5027691;28;20279;-46
2023/09/22 01:39:00;;;;;;;;;;;17.10;64.10;;;13.01;100.00;94400.56;5031855;28;19912;-44
2023/09/22 01:41:27;;;;;;;;;;;17.10;64.10;;;13.02;100.00;94402.91;5031451;28;20318;-44
2023/09/22 01:43:53;;;;;;;;;;;17.10;64.30;;;13.02;100.00;94404.81;5030421;28;19909;-44
2023/09/22 01:46:19;;;;;;;;;;;17.10;64.30;;;13.02;100.00;94404.81;5031992;28;19966;-45
2023/09/22 01:48:45;;;;;;;;;;;17.10;64.30;;;12.99;100.00;94408.88;5031060;28;20363;-48
2023/09/22 01:51:11;;;;;;;;;;;17.10;64.40;;;13.00;100.00;94423.81;5031298;28;20279;-46
2023/09/22 01:53:36;;;;;;;;;;;17.10;64.50;;;13.01;100.00;94419.28;5031177;28;19919;-45
2023/09/22 01:56:02;;;;;;;;;;;17.10;64.60;;;13.00;100.00;94415.78;5030431;28;19913;-44
2023/09/22 01:58:28;;;;;;;;;;;17.10;64.70;;;13.03;100.00;94415.19;5031566;28;19916;-44
2023/09/22 02:00:54;;;;;;;;;;;17.00;64.80;;;13.05;100.00;94426.38;5030509;28;19913;-45
2023/09/22 02:03:19;;;;;;;;;;;17.10;64.90;;;13.03;100.00;94428.53;5030937;28;19913;-48
2023/09/22 02:05:46;;;;;;;;;;;17.10;64.90;;;13.01;100.00;94429.97;5031323;28;19912;-49
2023/09/22 02:08:12;;;;;;;;;;;17.10;64.90;;;13.00;100.00;94426.47;5030439;28;19913;-48
2023/09/22 02:10:38;;;;;;;;;;;17.10;64.90;;;12.96;100.00;94429.00;5031586;28;19909;-49
2023/09/22 02:13:05;;;;;;;;;;;17.00;64.80;;;12.99;100.00;94432.16;5030349;28;20286;-46
2023/09/22 02:15:31;;;;;;;;;;;17.10;64.90;;;12.98;100.00;94436.72;5031024;28;19913;-47
2023/09/22 02:17:56;;;;;;;;;;;17.00;64.80;;;12.95;100.00;94446.13;5030246;28;19938;-49
2023/09/22 02:20:22;;;;;;;;;;;17.10;64.90;;;12.95;100.00;94448.81;5031219;28;19958;-49
2023/09/22 02:22:55;;;;;;;;;;;17.10;64.90;;;12.94;100.00;94455.25;5030793;28;19917;-48
2023/09/22 02:25:22;;;;;;;;;;;17.10;64.90;;;12.92;100.00;94457.44;5030513;28;19909;-48
2023/09/22 02:27:52;;;;;;;;;;;17.10;64.90;;;12.93;100.00;94459.00;5031301;28;19994;-46
2023/09/22 02:30:18;;;;;;;;;;;17.10;64.90;;;12.87;100.00;94457.56;5025793;28;19916;-47
2023/09/22 02:32:48;;;;;;;;;;;17.00;64.80;;;12.86;100.00;94455.97;5030233;28;19978;-46
2023/09/22 02:35:19;;;;;;;;;;;17.00;64.90;;;12.86;100.00;94450.63;5030569;28;19913;-46
2023/09/22 02:37:46;;;;;;;;;;;17.00;64.80;;;12.85;100.00;94448.25;5025453;28;20329;-46
2023/09/22 02:40:15;;;;;;;;;;;17.00;64.90;;;12.85;100.00;94441.06;5030789;28;19952;-45
2023/09/22 02:42:43;;;;;;;;;;;17.00;64.90;;;12.85;100.00;94440.25;5028941;28;19909;-45
2023/09/22 02:45:10;;;;;;;;;;;17.00;65.00;;;12.83;100.00;94448.56;5031030;28;19939;-45
2023/09/22 02:47:38;;;;;;;;;;;17.00;65.00;;;12.85;100.00;94453.59;5031009;28;19909;-48
2023/09/22 02:50:08;;;;;;;;;;;17.00;65.00;;;12.82;100.00;94455.03;5029674;28;20282;-46
2023/09/22 02:52:34;;;;;;;;;;;16.90;65.00;;;12.80;100.00;94459.88;5030306;28;20343;-47
2023/09/22 02:54:59;;;;;;;;;;;16.90;65.00;;;12.78;100.00;94462.06;5029421;28;19995;-48
2023/09/22 02:57:25;;;;;;;;;;;16.90;65.00;;;12.76;100.00;94444.78;5030761;28;19912;-50
2023/09/22 02:59:53;;;;;;;;;;;16.90;65.00;;;12.74;100.00;94431.69;5029627;28;19908;-46
2023/09/22 03:02:20;;;;;;;;;;;16.90;65.00;;;12.71;100.00;94422.41;5030461;28;20299;-50
2023/09/22 03:04:49;;;;;;;;;;;16.90;65.00;;;12.67;100.00;94424.13;5030407;28;19989;-47
2023/09/22 03:07:15;;;;;;;;;;;16.90;65.10;;;12.58;100.00;94431.28;5025347;28;19916;-49
2023/09/22 03:09:41;;;;;;;;;;;16.80;65.00;;;12.62;100.00;94453.63;5023471;28;19908;-46
2023/09/22 03:12:06;;;;;;;;;;;16.80;65.10;;;12.58;100.00;94466.03;5029701;28;19913;-49
2023/09/22 03:14:32;;;;;;;;;;;16.80;65.20;;;12.63;100.00;94462.41;5029905;28;19953;-47
2023/09/22 03:17:00;;;;;;;;;;;16.80;65.30;;;12.64;100.00;94462.13;5030615;28;20283;-45
2023/09/22 03:19:26;;;;;;;;;;;16.80;65.30;;;12.65;100.00;94458.34;5029411;28;19991;-45
2023/09/22 03:21:51;;;;;;;;;;;16.80;65.40;;;12.65;100.00;94455.69;5030483;28;20050;-47
2023/09/22 03:24:17;;;;;;;;;;;16.80;65.40;;;12.65;100.00;94462.91;5028783;28;19909;-46
2023/09/22 03:26:43;;;;;;;;;;;16.80;65.40;;;12.63;100.00;94467.75;5030389;28;19909;-49
2023/09/22 03:29:09;;;;;;;;;;;16.80;65.40;;;12.63;100.00;94481.94;5030511;28;19915;-50
2023/09/22 03:31:36;;;;;;;;;;;16.80;65.40;;;12.59;100.00;94467.59;5028847;28;19923;-47
2023/09/22 03:34:02;;;;;;;;;;;16.80;65.40;;;12.59;100.00;94450.78;5021536;28;19908;-46
2023/09/22 03:36:30;;;;;;;;;;;16.80;65.40;;;12.56;100.00;94448.72;5029162;28;20334;-46
2023/09/22 03:38:57;;;;;;;;;;;16.70;65.50;;;12.54;100.00;94443.69;5030272;28;19999;-46
2023/09/22 03:41:28;;;;;;;;;;;16.70;65.40;;;12.51;100.00;94446.97;5031330;28;19908;-48
2023/09/22 03:43:55;;;;;;;;;;;16.70;65.50;;;12.53;100.00;94433.28;5032787;28;19912;-46
2023/09/22 03:46:22;;;;;;;;;;;16.70;65.50;;;12.46;100.00;94431.84;5034626;28;19908;-50
2023/09/22 03:48:48;;;;;;;;;;;16.70;65.50;;;12.45;100.00;94422.25;5025365;28;20049;-51
2023/09/22 03:51:14;;;;;;;;;;;16.70;65.60;;;12.46;100.00;94420.38;5033813;28;19919;-49
2023/09/22 03:53:40;;;;;;;;;;;16.70;65.60;;;12.45;100.00;94419.59;5032726;28;19909;-51
2023/09/22 03:56:07;;;;;;;;;;;16.60;65.60;;;12.41;100.00;94431.97;5033174;28;19916;-47
2023/09/22 03:58:33;;;;;;;;;;;16.60;65.60;;;12.35;100.00;94433.19;5034063;28;20017;-48
2023/09/22 04:01:08;;;;;;;;;;;16.60;65.70;;;12.33;100.00;94442.59;5022246;28;19955;-47
2023/09/22 04:03:36;;;;;;;;;;;16.60;65.70;;;12.33;100.00;94440.69;5033231;28;19909;-50
2023/09/22 04:06:04;;;;;;;;;;;16.50;65.70;;;12.29;100.00;94438.94;5032729;28;19927;-49
2023/09/22 04:08:30;;;;;;;;;;;16.60;65.80;;;12.28;100.00;94435.47;5033915;28;19909;-48
2023/09/22 04:10:56;;;;;;;;;;;16.50;65.80;;;12.26;100.00;94438.44;5033668;28;19908;-47
2023/09/22 04:13:24;;;;;;;;;;;16.50;65.80;;;12.25;100.00;94436.06;5014706;28;19909;-48
2023/09/22 04:16:01;;;;;;;;;;;16.50;65.80;;;12.28;100.00;94443.47;5033933;28;19917;-46
2023/09/22 04:18:30;;;;;;;;;;;16.50;65.90;;;12.29;100.00;94436.28;5032224;28;20252;-50
2023/09/22 04:21:04;;;;;;;;;;;16.50;66.00;;;12.33;100.00;94435.38;5033691;28;19912;-46
2023/09/22 04:23:31;;;;;;;;;;;16.50;66.00;;;12.27;100.00;94440.03;5033063;28;19915;-46
2023/09/22 04:26:09;;;;;;;;;;;16.50;66.00;;;12.31;100.00;94455.44;5032222;28;19975;-46
2023/09/22 04:28:38;;;;;;;;;;;16.50;66.00;;;12.29;100.00;94458.44;5033297;28;19917;-46
2023/09/22 04:31:03;;;;;;;;;;;16.50;66.10;;;12.34;100.00;94466.31;5032205;28;20039;-46
2023/09/22 04:33:29;;;;;;;;;;;16.50;66.00;;;12.34;100.00;94468.97;5032747;28;20383;-48
2023/09/22 04:35:55;;;;;;;;;;;16.50;66.10;;;12.26;100.00;94465.16;5032241;28;19919;-46
2023/09/22 04:38:21;;;;;;;;;;;16.50;66.00;;;12.27;100.00;94455.25;5033358;28;19948;-46
2023/09/22 04:40:47;;;;;;;;;;;16.50;66.00;;;12.25;100.00;94449.41;5033422;28;19978;-45
2023/09/22 04:43:13;;;;;;;;;;;16.50;66.10;;;12.25;100.00;94450.22;5031494;28;19919;-47
2023/09/22 04:45:41;;;;;;;;;;;16.50;66.10;;;12.21;100.00;94454.59;5033048;28;19909;-44
2023/09/22 04:48:08;;;;;;;;;;;16.50;66.10;;;12.18;100.00;94462.41;5031843;28;19912;-51
2023/09/22 04:50:35;;;;;;;;;;;16.50;66.20;;;12.21;100.00;94462.59;5033021;28;20014;-46
2023/09/22 04:53:01;;;;;;;;;;;16.50;66.20;;;12.20;100.00;94465.56;5031185;28;19909;-52
2023/09/22 04:55:29;;;;;;;;;;;16.40;66.20;;;12.21;100.00;94461.81;5031595;28;19912;-49
2023/09/22 04:57:59;;;;;;;;;;;16.40;66.20;;;12.17;100.00;94474.19;5032737;28;19909;-51
2023/09/22 05:00:27;;;;;;;;;;;16.40;66.30;;;12.22;100.00;94484.72;5031705;28;19908;-44
2023/09/22 05:02:53;;;;;;;;;;;16.40;66.30;;;12.20;100.00;94490.38;5032276;28;19944;-50
2023/09/22 05:05:19;;;;;;;;;;;16.40;66.40;;;12.22;100.00;94488.22;5033070;28;20365;-53
2023/09/22 05:07:46;;;;;;;;;;;16.40;66.40;;;12.25;100.00;94484.13;5031639;28;20391;-53
2023/09/22 05:10:12;;;;;;;;;;;16.40;66.40;;;12.27;100.00;94497.97;5032714;28;19919;-52
2023/09/22 05:12:38;;;;;;;;;;;16.40;66.40;;;12.29;100.00;94505.69;5028956;28;19913;-47
2023/09/22 05:15:05;;;;;;;;;;;16.40;66.40;;;12.29;100.00;94503.81;5032448;28;19913;-45
2023/09/22 05:17:31;;;;;;;;;;;16.40;66.40;;;12.25;100.00;94508.97;5027989;28;19917;-46
2023/09/22 05:19:58;;;;;;;;;;;16.50;66.40;;;12.26;100.00;94515.09;5030882;28;19940;-53
2023/09/22 05:22:24;;;;;;;;;;;16.40;66.40;;;12.29;100.00;94505.69;5032248;28;19909;-47
2023/09/22 05:24:50;;;;;;;;;;;16.50;66.60;;;12.25;100.00;94500.16;5028963;28;19922;-48
2023/09/22 05:27:16;;;;;;;;;;;16.40;66.50;;;12.30;100.00;94488.59;5031967;28;19912;-49
2023/09/22 05:29:42;;;;;;;;;;;16.50;67.50;;;12.27;100.00;94487.28;5032418;28;20242;-49
2023/09/22 05:32:09;;;;;;;;;;;16.50;66.50;;;12.26;100.00;94507.88;5031740;28;20433;-47
2023/09/22 05:34:35;;;;;;;;;;;16.50;66.60;;;12.30;100.00;94513.41;5032127;28;19915;-45
2023/09/22 05:37:01;;;;;;;;;;;16.40;66.60;;;12.28;100.00;94510.22;5031265;28;19948;-50
2023/09/22 05:39:27;;;;;;;;;;;16.50;66.60;;;12.27;100.00;94517.44;5032089;28;20027;-49
2023/09/22 05:41:53;;;;;;;;;;;16.50;66.60;;;12.29;100.00;94514.50;5031102;28;20368;-47
2023/09/22 05:44:19;;;;;;;;;;;16.50;66.70;;;12.34;100.00;94521.59;5032202;28;19908;-47
2023/09/22 05:46:45;;;;;;;;;;;16.50;66.70;;;12.34;100.00;94522.38;5032336;28;19916;-47
2023/09/22 05:49:15;;;;;;;;;;;16.50;66.70;;;12.36;100.00;94519.41;5030432;28;19916;-50
2023/09/22 05:51:41;;;;;;;;;;;16.50;66.70;;;12.36;100.00;94530.88;5031418;28;20004;-47
2023/09/22 05:54:08;;;;;;;;;;;16.50;66.70;;;12.35;100.00;94525.88;5025428;28;19962;-52
2023/09/22 05:56:35;;;;;;;;;;;16.50;66.80;;;12.36;100.00;94530.88;5031727;28;19913;-47
2023/09/22 05:59:02;;;;;;;;;;;16.50;66.70;;;12.39;100.00;94526.84;5031546;28;19916;-46
2023/09/22 06:01:30;;;;;;;;;;;16.50;66.70;;;12.35;100.00;94520.53;5028856;28;19909;-45
2023/09/22 06:03:56;;;;;;;;;;;16.60;66.70;;;12.30;100.00;94531.31;5021802;28;19909;-45
2023/09/22 06:06:22;;;;;;;;;;;16.60;66.70;;;12.38;100.00;94526.03;5024767;28;20202;-49
2023/09/22 06:08:50;;;;;;;;;;;16.60;66.60;;;12.41;100.00;94530.78;5027410;28;19912;-49
2023/09/22 06:11:17;;;;;;;;;;;16.70;66.70;;;12.44;100.00;94543.53;5023331;28;19920;-46
2023/09/22 06:13:43;;;;;;;;;;;16.70;66.60;;;12.45;100.00;94547.78;5025159;28;19912;-46
2023/09/22 06:16:09;;;;;;;;;;;16.80;66.70;;;12.38;100.00;94550.09;5022878;28;20324;-47
2023/09/22 06:18:37;;;;;;;;;;;16.80;66.60;;;12.46;100.00;94553.91;5024615;28;19948;-46
2023/09/22 06:21:05;;;;;;;;;;;16.80;66.50;;;12.49;100.00;94551.41;5018156;28;19943;-47
2023/09/22 06:23:31;;;;;;;;;;;16.80;66.50;;;12.46;100.00;94548.56;5015871;28;20321;-48
2023/09/22 06:26:03;;;;;;;;;;;16.80;66.50;;;12.48;100.00;94536.50;5022615;28;19909;-45
2023/09/22 06:28:32;;;;;;;;;;;16.80;66.50;;;12.49;100.00;94535.41;5022200;28;19909;-48
2023/09/22 06:31:03;;;;;;;;;;;16.80;66.50;;;12.49;100.00;94538.06;5029051;28;20375;-45
2023/09/22 06:33:32;;;;;;;;;;;16.90;66.50;;;12.58;100.00;94537.34;5025146;28;19928;-47
2023/09/22 06:36:03;;;;;;;;;;;16.90;66.50;;;12.60;100.00;94538.66;5021625;28;20380;-46
2023/09/22 06:38:33;;;;;;;;;;;17.00;66.40;;;12.60;100.00;94538.66;5025065;28;20352;-49
2023/09/22 06:41:04;;;;;;;;;;;17.00;66.40;;;12.60;100.00;94537.84;5025713;28;19913;-45
2023/09/22 06:43:30;;;;;;;;;;;17.10;67.20;;;12.69;100.00;94549.38;5019378;28;19920;-45
2023/09/22 06:45:59;;;;;;;;;;;17.10;66.30;;;12.69;100.00;94536.00;5022379;28;19963;-44
2023/09/22 06:48:26;;;;;;;;;;;17.20;66.30;;;12.73;100.00;94540.47;5023850;28;20371;-46
2023/09/22 06:50:53;;;;;;;;;;;17.20;66.30;;;12.81;100.00;94562.19;5025246;28;20011;-48
2023/09/22 06:53:21;;;;;;;;;;;17.30;66.30;;;12.83;100.00;94566.16;5030389;28;20015;-45
2023/09/22 06:55:48;;;;;;;;;;;17.30;66.20;;;12.86;100.00;94559.44;5024823;28;19974;-47
2023/09/22 06:58:14;;;;;;;;;;;17.40;66.20;;;12.90;100.00;94550.47;5015648;28;19909;-45
2023/09/22 07:00:40;;;;;;;;;;;17.40;66.10;;;12.92;100.00;94545.63;5028582;28;19908;-45
2023/09/22 07:03:06;;;;;;;;;;;17.40;66.10;;;12.97;100.00;94550.06;5021895;28;20204;-45
2023/09/22 07:05:32;;;;;;;;;;;17.40;66.10;;;12.94;100.00;94551.47;5017421;28;19909;-45
2023/09/22 07:07:58;;;;;;;;;;;17.40;66.00;;;12.93;100.00;94559.78;5022657;28;20282;-45
2023/09/22 07:10:24;;;;;;;;;;;17.40;66.00;;;12.93;100.00;94557.09;5024120;28;19909;-48
2023/09/22 07:12:53;;;;;;;;;;;17.50;66.00;;;12.94;100.00;94553.34;5025621;28;19970;-45
2023/09/22 07:15:22;;;;;;;;;;;17.50;66.00;;;13.00;100.00;94548.66;5021975;28;19920;-45
2023/09/22 07:17:48;;;;;;;;;;;17.50;65.90;;;13.04;100.00;94557.66;5022230;28;19913;-45
2023/09/22 07:20:14;;;;;;;;;;;17.60;66.00;;;13.10;100.00;94565.25;5012093;28;19924;-47
2023/09/22 07:22:42;;;;;;;;;;;17.60;66.00;;;13.11;100.00;94563.38;5030516;28;19916;-46
2023/09/22 07:25:08;;;;;;;;;;;17.60;66.00;;;13.11;100.00;94558.81;5029048;28;19909;-45
2023/09/22 07:27:36;;;;;;;;;;;17.60;65.90;;;13.15;100.00;94550.97;5029984;28;20004;-49
2023/09/22 07:30:09;;;;;;;;;;;17.60;65.90;;;13.17;100.00;94554.13;5029636;28;19909;-45
2023/09/22 07:32:38;;;;;;;;;;;17.70;65.90;;;13.22;100.00;94547.84;5030117;28;19916;-45
2023/09/22 07:35:04;;;;;;;;;;;17.80;65.80;;;13.12;100.00;94557.69;5030377;28;19908;-50
2023/09/22 07:37:30;;;;;;;;;;;17.90;65.70;;;13.14;100.00;94554.75;5020877;28;19956;-45
2023/09/22 07:39:56;;;;;;;;;;;17.90;65.60;;;13.17;100.00;94548.78;5030485;28;19913;-48
2023/09/22 07:42:22;;;;;;;;;;;17.90;65.60;;;13.16;100.00;94547.19;5029519;28;19919;-51
2023/09/22 07:44:48;;;;;;;;;;;17.90;65.60;;;13.24;100.00;94540.31;5030263;28;19916;-46
2023/09/22 07:47:15;;;;;;;;;;;17.90;65.60;;;13.18;100.00;94556.50;5029946;28;19909;-46
2023/09/22 07:49:42;;;;;;;;;;;17.90;65.60;;;13.26;100.00;94546.19;5028911;28;19944;-47
2023/09/22 07:52:10;;;;;;;;;;;17.90;65.60;;;13.30;100.00;94544.47;5029712;28;19912;-46
2023/09/22 07:54:37;;;;;;;;;;;17.90;65.60;;;13.30;100.00;94552.50;5029421;28;20367;-44
2023/09/22 07:57:04;;;;;;;;;;;17.90;65.50;;;13.30;100.00;94558.63;5029551;28;20283;-47
2023/09/22 07:59:30;;;;;;;;;;;18.00;65.40;;;13.40;100.00;94565.63;5030604;28;20007;-47
2023/09/22 08:01:59;;;;;;;;;;;18.20;65.40;;;13.43;100.00;94563.13;5029183;28;19944;-47
2023/09/22 08:04:26;;;;;;;;;;;18.30;65.20;;;13.57;100.00;94560.38;5029997;28;19909;-46
2023/09/22 08:06:53;;;;;;;;;;;18.40;65.00;;;13.68;100.00;94566.22;5028791;28;19916;-51
2023/09/22 08:09:19;;;;;;;;;;;18.50;64.90;;;13.54;100.00;94577.03;5006479;28;19913;-46
2023/09/22 08:11:46;;;;;;;;;;;18.60;64.70;;;13.56;100.00;94577.50;5029760;28;20394;-49
2023/09/22 08:14:11;;;;;;;;;;;18.70;64.50;;;13.60;100.00;94575.81;5029488;28;20302;-50
2023/09/22 08:16:38;;;;;;;;;;;18.70;64.40;;;13.74;100.00;94574.91;5029976;28;20385;-48
2023/09/22 08:19:10;;;;;;;;;;;18.80;64.40;;;13.80;100.00;94585.16;5010842;28;20318;-54
2023/09/22 08:21:38;;;;;;;;;;;18.90;64.30;;;13.83;100.00;94589.13;5029835;28;19909;-49
2023/09/22 08:24:04;;;;;;;;;;;18.90;64.20;;;13.85;100.00;94598.44;5029090;28;20356;-48
2023/09/22 08:26:31;;;;;;;;;;;19.00;64.20;;;13.73;100.00;94600.09;5022126;28;19913;-48
2023/09/22 08:28:57;;;;;;;;;;;18.90;64.00;;;13.63;100.00;94593.09;5032998;28;19995;-48
2023/09/22 08:31:26;;;;;;;;;;;18.90;63.90;;;13.76;100.00;94594.91;5028001;28;19936;-49
2023/09/22 08:33:53;;;;;;;;;;;18.90;64.00;;;13.75;100.00;94601.34;5015975;28;19915;-49
2023/09/22 08:36:19;;;;;;;;;;;18.80;64.70;;;13.73;100.00;94592.88;5023354;28;19946;-50
2023/09/22 08:38:47;;;;;;;;;;;18.80;64.00;;;13.69;100.00;94602.59;5032900;28;20008;-52
2023/09/22 08:41:13;;;;;;;;;;;18.80;64.00;;;13.77;100.00;94609.09;5033496;28;19967;-47
2023/09/22 08:43:40;;;;;;;;;;;18.80;64.80;;;13.81;100.00;94605.47;5032460;28;20375;-49
2023/09/22 08:46:06;;;;;;;;;;;18.80;64.00;;;13.80;100.00;94598.56;5022938;28;19916;-47
2023/09/22 08:48:32;;;;;;;;;;;18.80;63.90;;;13.88;100.00;94603.16;5027606;28;19909;-49
2023/09/22 08:50:58;;;;;;;;;;;18.90;64.00;;;13.95;100.00;94605.38;5032840;28;19919;-52
2023/09/22 08:53:24;;;;;;;;;;;18.90;63.90;;;14.05;100.00;94607.00;5031620;28;19915;-47
2023/09/22 08:55:50;;;;;;;;;;;19.00;64.00;;;14.08;100.00;94607.16;5029071;28;19917;-48
2023/09/22 08:58:20;;;;;;;;;;;19.10;64.00;;;14.06;100.00;94614.72;5032890;28;19931;-47
2023/09/22 09:00:51;;;;;;;;;;;19.10;63.90;;;14.16;100.00;94621.66;5029614;28;19909;-47
2023/09/22 09:03:21;;;;;;;;;;;19.20;63.80;;;14.21;100.00;94618.06;5032800;28;20011;-48
2023/09/22 09:05:49;;;;;;;;;;;19.30;63.80;;;14.24;100.00;94612.09;5033105;28;20373;-46
2023/09/22 09:08:22;;;;;;;;;;;19.40;63.80;;;14.29;100.00;94615.44;5019569;28;19909;-46
2023/09/22 09:10:49;;;;;;;;;;;19.40;63.70;;;14.30;100.00;94606.28;5025805;28;20334;-49
2023/09/22 09:13:23;;;;;;;;;;;19.50;63.60;;;14.42;100.00;94604.91;5029359;28;20368;-52
2023/09/22 09:15:55;;;;;;;;;;;19.60;63.50;;;14.46;100.00;94605.84;5026153;28;19974;-52
2023/09/22 09:18:24;;;;;;;;;;;19.70;63.30;;;14.61;100.00;94604.66;5019972;28;20380;-50
2023/09/22 09:21:14;;;;;;;;;;;19.80;63.20;;;14.55;100.00;94604.78;5032919;28;19909;-49
2023/09/22 09:23:55;;;;;;;;;;;19.90;63.10;;;14.54;100.00;94607.78;5032555;28;19919;-54
2023/09/22 09:26:27;;;;;;;;;;;20.00;63.00;;;14.56;100.00;94609.03;5031859;28;19962;-49
2023/09/22 09:28:53;;;;;;;;;;;20.00;62.80;;;14.60;100.00;94606.53;5030734;28;19913;-50
2023/09/22 09:31:20;;;;;;;;;;;20.10;62.60;;;14.50;100.00;94601.44;5031600;28;19928;-54
2023/09/22 09:33:51;;;;;;;;;;;20.10;62.40;;;14.53;100.00;94598.16;5030872;28;19908;-50
2023/09/22 09:36:17;;;;;;;;;;;20.10;62.20;;;14.49;99.81;94597.97;5013336;28;19917;-51
2023/09/22 09:38:43;;;;;;;;;;;20.10;62.20;;;14.58;100.00;94601.50;5031194;28;20268;-51
2023/09/22 09:41:11;;;;;;;;;;;20.10;62.10;;;14.50;98.07;94604.13;5031992;28;19934;-52
2023/09/22 09:43:42;;;;;;;;;;;20.10;62.10;;;14.38;96.94;94602.03;5031428;28;19971;-53
2023/09/22 09:46:10;;;;;;;;;;;20.20;61.90;;;14.50;97.13;94604.91;5027182;28;19948;-51
2023/09/22 09:48:37;;;;;;;;;;;20.20;61.70;;;14.67;96.22;94608.75;5026051;28;19909;-50
2023/09/22 09:51:12;;;;;;;;;;;20.30;61.70;;;14.74;95.93;94615.22;5031834;28;19912;-54
2023/09/22 09:53:44;;;;;;;;;;;20.40;61.60;;;14.61;93.30;94621.53;5031430;28;19978;-56
2023/09/22 09:56:14;;;;;;;;;;;20.50;61.50;;;14.63;95.28;94613.16;5030998;28;19997;-49
2023/09/22 09:58:42;;;;;;;;;;;20.60;61.10;;;14.78;93.92;94620.75;5031253;28;19913;-50
2023/09/22 10:01:09;;;;;;;;;;;20.80;60.90;;;15.00;93.40;94619.81;5031000;28;20399;-49
2023/09/22 10:03:39;;;;;;;;;;;21.10;60.70;;;15.24;92.01;94614.75;5031515;28;19916;-51
2023/09/22 10:06:10;;;;;;;;;;;21.40;60.40;;;15.48;89.34;94618.81;5029569;28;20009;-49
2023/09/22 10:08:37;;;;;;;;;;;21.70;60.10;;;15.43;87.95;94617.09;5021175;28;19912;-49
2023/09/22 10:11:07;;;;;;;;;;;22.00;59.80;;;15.83;89.15;94619.56;5022379;28;19951;-51
2023/09/22 10:13:37;;;;;;;;;;;22.30;59.60;;;16.19;87.92;94618.31;5025916;28;19935;-52
2023/09/22 10:16:05;;;;;;;;;;;22.50;59.50;;;16.25;86.70;94619.72;5031740;28;20359;-50
2023/09/22 10:18:55;;;;;;;;;;;22.80;59.20;;;16.51;85.85;94618.78;5031069;28;19940;-53
2023/09/22 10:21:36;;;;;;;;;;;23.10;58.90;;;16.58;81.49;94611.03;5027834;28;19913;-49
2023/09/22 10:24:27;;;;;;;;;;;23.30;58.60;;;16.86;81.18;94614.81;5030353;28;20257;-49
2023/09/22 10:26:56;;;;;;;;;;;23.40;58.50;;;16.88;78.51;94606.41;5031006;28;20115;-51
2023/09/22 10:29:34;;;;;;;;;;;23.50;58.40;;;17.03;80.44;94610.41;5031291;28;19940;-54
2023/09/22 10:32:18;;;;;;;;;;;23.50;58.30;;;16.98;79.96;94599.84;5027543;28;19944;-50
2023/09/22 10:35:09;;;;;;;;;;;23.60;58.10;;;16.92;76.01;94601.94;5031017;28;19909;-49
2023/09/22 10:37:35;;;;;;;;;;;23.60;57.90;;;16.85;75.57;94607.84;5027795;28;19919;-55
2023/09/22 10:40:16;;;;;;;;;;;23.60;57.70;;;17.03;77.00;94602.34;5024977;28;19909;-54
2023/09/22 10:42:52;;;;;;;;;;;23.60;57.60;;;17.12;75.13;94595.00;5029333;28;20382;-55
2023/09/22 10:45:25;;;;;;;;;;;23.70;57.60;;;17.09;78.62;94603.72;5031321;28;19913;-52
2023/09/22 10:47:52;;;;;;;;;;;23.80;57.30;;;17.23;76.68;94592.66;5030415;28;19915;-50
2023/09/22 10:50:33;;;;;;;;;;;23.90;57.10;;;17.05;74.98;94600.91;5029594;28;20011;-52
2023/09/22 10:53:05;;;;;;;;;;;24.10;56.80;;;17.30;77.29;94599.09;5021809;28;20342;-54
2023/09/22 10:55:42;;;;;;;;;;;24.20;56.70;;;17.31;75.91;94586.44;5021324;28;19913;-51
2023/09/22 10:58:11;;;;;;;;;;;24.30;56.60;;;17.38;72.18;94591.28;5022918;28;19953;-53
2023/09/22 11:00:43;;;;;;;;;;;24.50;56.40;;;17.65;69.27;94593.38;5022853;28;19943;-56
2023/09/22 11:03:16;;;;;;;;;;;24.60;56.30;;;17.87;73.97;94610.28;5016989;28;20324;-56
2023/09/22 11:05:44;;;;;;;;;;;24.90;56.10;;;18.06;72.12;94617.84;5026671;28;19915;-53
2023/09/22 11:08:17;;;;;;;;;;;25.10;56.10;;;18.10;72.01;94621.44;5020819;28;20379;-50
2023/09/22 11:10:48;;;;;;;;;;;25.20;55.70;;;18.25;70.53;94618.09;5023468;28;19913;-55
2023/09/22 11:13:15;;;;;;;;;;;25.20;55.60;;;18.32;68.46;94614.81;5022450;28;20407;-50